Belvue, Kansas
Current Conditions -  °F | °C
As of 8:52 PM on Wednesday 22 Oct 2014 (Local Time) from KMHK Reporting Station
Broken Clouds Broken Clouds  
Wind Chill: 71°   Ceiling: 6500
Heat Index: 71°   Visibility: 10mi
Dew Point: 56°   Wind: 7mph
Humidity: 59%   Direction: 190°S
Pressure: 30.04"   Gusts: NA
Location:  39.22°N, 96.18°W
Report Text: KMHK 230152Z AUTO 19006KT 10SM BKN065 BKN110 22/13 A3004 RMK AO2 SLP169 T02170133 TSNO
Loading
Personal Weather Stations






























Interactive Weather Map
Tropical Storm Tracking
New forecast layout! Learn more

10-Day Weather Forecast

Advertisements
Track Severe Weather on mobile